createdAt,value
2019-02-18T00:00:30.417Z,1.10
2019-02-18T00:03:00.195Z,1.10
2019-02-18T00:05:29.852Z,1.10
2019-02-18T00:07:59.627Z,1.20
2019-02-18T00:10:29.354Z,1.30
2019-02-18T00:12:58.961Z,1.30
2019-02-18T00:15:28.782Z,1.30
2019-02-18T00:17:58.528Z,1.20
2019-02-18T00:20:28.197Z,1.20
2019-02-18T00:22:57.826Z,1.10
2019-02-18T00:25:27.582Z,1.10
2019-02-18T00:27:57.180Z,1.00
2019-02-18T00:30:26.936Z,0.90
2019-02-18T00:32:56.613Z,0.90
2019-02-18T00:35:27.830Z,0.90
2019-02-18T00:37:57.558Z,0.90
2019-02-18T00:40:27.153Z,0.80
2019-02-18T00:42:56.829Z,0.80
2019-02-18T00:45:26.507Z,0.70
2019-02-18T00:47:56.186Z,0.70
2019-02-18T00:50:26.829Z,0.70
2019-02-18T00:52:56.509Z,0.60
2019-02-18T00:55:27.069Z,0.60
2019-02-18T00:57:56.745Z,0.60
2019-02-18T01:00:26.411Z,0.70
2019-02-18T01:02:56.232Z,0.90
2019-02-18T01:05:25.963Z,0.90
2019-02-18T01:07:55.666Z,0.90
2019-02-18T01:10:25.508Z,0.70
2019-02-18T01:12:56.171Z,0.70
2019-02-18T01:15:25.915Z,0.70
2019-02-18T01:17:56.434Z,0.70
2019-02-18T01:20:26.168Z,0.70
2019-02-18T01:22:55.787Z,0.70
2019-02-18T01:25:25.532Z,0.70
2019-02-18T01:27:55.216Z,0.70
2019-02-18T01:30:24.891Z,0.60
2019-02-18T01:32:54.582Z,0.50
2019-02-18T01:35:24.446Z,0.50
2019-02-18T01:37:54.200Z,0.40
2019-02-18T01:40:23.873Z,0.40
2019-02-18T01:42:53.489Z,0.40
2019-02-18T01:45:23.223Z,0.50
2019-02-18T01:47:52.850Z,0.40
2019-02-18T01:50:22.591Z,0.30
2019-02-18T01:52:52.264Z,0.30
2019-02-18T01:55:22.052Z,0.30
2019-02-18T01:57:51.728Z,0.30
2019-02-18T02:00:21.393Z,0.20
2019-02-18T02:02:51.657Z,0.10
2019-02-18T02:05:21.383Z,0.10
2019-02-18T02:07:56.315Z,0.00
2019-02-18T02:10:23.604Z,-0.10
2019-02-18T02:12:56.281Z,-0.10
2019-02-18T02:15:27.532Z,0.00
2019-02-18T02:17:57.163Z,0.10
2019-02-18T02:20:26.771Z,0.10
2019-02-18T02:22:56.457Z,0.20
2019-02-18T02:25:26.132Z,0.10
2019-02-18T02:27:55.746Z,0.10
2019-02-18T02:30:25.449Z,0.10
2019-02-18T02:32:56.050Z,0.20
2019-02-18T02:35:25.738Z,0.20
2019-02-18T02:38:04.802Z,0.30
2019-02-18T02:40:26.781Z,0.30
2019-02-18T02:42:56.795Z,0.40
2019-02-18T02:45:26.465Z,0.40
2019-02-18T02:47:56.158Z,0.40
2019-02-18T02:50:25.814Z,0.40
2019-02-18T02:52:55.556Z,0.30
2019-02-18T02:55:25.152Z,0.10
2019-02-18T02:57:54.936Z,0.10
2019-02-18T03:00:24.597Z,0.10
2019-02-18T03:02:54.446Z,0.00
2019-02-18T03:05:25.149Z,0.00
2019-02-18T03:07:54.850Z,0.00
2019-02-18T03:10:24.515Z,0.00
2019-02-18T03:12:54.198Z,0.00
2019-02-18T03:15:23.798Z,0.10
2019-02-18T03:17:54.344Z,0.10
2019-02-18T03:20:23.965Z,0.10
2019-02-18T03:22:53.657Z,0.20
2019-02-18T03:25:27.887Z,0.20
2019-02-18T03:28:09.309Z,0.10
2019-02-18T03:30:44.771Z,0.10
2019-02-18T03:33:32.342Z,0.10
2019-02-18T03:36:02.067Z,0.10
2019-02-18T03:38:32.148Z,0.10
2019-02-18T03:41:03.475Z,0.00
2019-02-18T03:43:33.384Z,0.00
2019-02-18T03:46:03.253Z,-0.10
2019-02-18T03:48:33.084Z,-0.20
2019-02-18T03:51:02.704Z,-0.20
2019-02-18T03:53:32.306Z,-0.30
2019-02-18T03:56:01.951Z,-0.30
2019-02-18T03:58:31.610Z,-0.20
2019-02-18T04:01:01.298Z,-0.30
2019-02-18T04:03:30.961Z,-0.30
2019-02-18T04:06:00.642Z,-0.40
2019-02-18T04:08:30.366Z,-0.40
2019-02-18T04:11:00.137Z,-0.40
2019-02-18T04:13:30.002Z,-0.50
2019-02-18T04:15:59.614Z,-0.50
2019-02-18T04:18:29.304Z,-0.40
2019-02-18T04:20:58.917Z,-0.40
2019-02-18T04:23:28.531Z,-0.40
2019-02-18T04:25:58.265Z,-0.30
2019-02-18T04:28:27.943Z,-0.30
2019-02-18T04:30:57.718Z,-0.40
2019-02-18T04:33:27.386Z,-0.30
2019-02-18T04:35:57.066Z,-0.30
2019-02-18T04:38:26.727Z,-0.30
2019-02-18T04:40:56.606Z,-0.30
2019-02-18T04:43:26.203Z,-0.40
2019-02-18T04:45:55.929Z,-0.50
2019-02-18T04:48:25.713Z,-0.60
2019-02-18T04:50:55.410Z,-0.60
2019-02-18T04:53:25.071Z,-0.60
2019-02-18T04:55:54.887Z,-0.50
2019-02-18T04:58:24.560Z,-0.50
2019-02-18T05:00:55.180Z,-0.40
2019-02-18T05:03:24.780Z,-0.40
2019-02-18T05:05:54.421Z,-0.30
2019-02-18T05:08:24.081Z,-0.40
2019-02-18T05:10:53.768Z,-0.30
2019-02-18T05:13:23.439Z,-0.30
2019-02-18T05:15:53.130Z,-0.40
2019-02-18T05:18:22.791Z,-0.50
2019-02-18T05:20:52.408Z,-0.50
2019-02-18T05:23:22.085Z,-0.60
2019-02-18T05:25:51.771Z,-0.70
2019-02-18T05:28:21.629Z,-0.70
2019-02-18T05:30:51.287Z,-0.70
2019-02-18T05:33:21.004Z,-0.70
2019-02-18T05:35:50.742Z,-0.60
2019-02-18T05:38:20.455Z,-0.50
2019-02-18T05:40:50.175Z,-0.50
2019-02-18T05:43:19.873Z,-0.50
2019-02-18T05:45:49.486Z,-0.40
2019-02-18T05:48:19.253Z,-0.40
2019-02-18T05:50:48.868Z,-0.30
2019-02-18T05:53:18.696Z,-0.20
2019-02-18T05:55:48.461Z,-0.20
2019-02-18T05:58:18.222Z,-0.20
2019-02-18T06:00:47.954Z,-0.30
2019-02-18T06:03:17.725Z,-0.40
2019-02-18T06:05:47.383Z,-0.50
2019-02-18T06:08:17.165Z,-0.50
2019-02-18T06:10:46.870Z,-0.60
2019-02-18T06:13:16.663Z,-0.60
2019-02-18T06:15:46.292Z,-0.60
2019-02-18T06:18:15.992Z,-0.70
2019-02-18T06:20:45.619Z,-0.80
2019-02-18T06:23:15.283Z,-0.80
2019-02-18T06:25:44.981Z,-0.80
2019-02-18T06:28:14.643Z,-0.80
2019-02-18T06:30:44.335Z,-0.70
2019-02-18T06:33:14.055Z,-0.70
2019-02-18T06:35:43.881Z,-0.60
2019-02-18T06:38:13.529Z,-0.60
2019-02-18T06:40:43.170Z,-0.50
2019-02-18T06:43:12.861Z,-0.40
2019-02-18T06:45:44.185Z,-0.50
2019-02-18T06:48:19.164Z,-0.60
2019-02-18T06:50:48.868Z,-0.50
2019-02-18T06:53:18.522Z,-0.60
2019-02-18T06:55:48.288Z,-0.50
2019-02-18T06:58:34.690Z,-0.50
2019-02-18T07:01:06.083Z,-0.50
2019-02-18T07:03:53.478Z,-0.40
2019-02-18T07:06:30.233Z,-0.40
2019-02-18T07:09:01.464Z,-0.30
2019-02-18T07:11:35.262Z,-0.20
2019-02-18T07:14:04.999Z,-0.30
2019-02-18T07:16:34.673Z,-0.20
2019-02-18T07:19:04.391Z,-0.10
2019-02-18T07:21:34.967Z,0.00
2019-02-18T07:24:04.933Z,0.00
2019-02-18T07:26:34.584Z,0.10
2019-02-18T07:29:04.247Z,0.20
2019-02-18T07:31:33.895Z,0.20
2019-02-18T07:34:03.537Z,0.30
2019-02-18T07:36:34.963Z,0.40
2019-02-18T07:39:06.603Z,0.50
2019-02-18T07:41:36.300Z,0.60
2019-02-18T07:44:06.044Z,0.70
2019-02-18T07:46:35.627Z,0.80
2019-02-18T07:49:05.304Z,1.00
2019-02-18T07:51:35.062Z,1.20
2019-02-18T07:54:04.818Z,1.30
2019-02-18T07:56:34.477Z,1.40
2019-02-18T07:59:04.225Z,1.50
2019-02-18T08:01:33.925Z,1.60
2019-02-18T08:04:03.605Z,1.70
2019-02-18T08:06:33.386Z,1.80
2019-02-18T08:09:04.934Z,1.90
2019-02-18T08:11:34.679Z,2.10
2019-02-18T08:14:04.428Z,2.20
2019-02-18T08:16:34.110Z,2.20
2019-02-18T08:19:03.872Z,2.40
2019-02-18T08:21:34.506Z,2.50
2019-02-18T08:24:04.176Z,2.60
2019-02-18T08:26:33.910Z,2.70
2019-02-18T08:29:03.600Z,2.90
2019-02-18T08:31:33.470Z,3.00
2019-02-18T08:34:04.066Z,3.10
2019-02-18T08:36:33.772Z,3.30
2019-02-18T08:39:04.734Z,3.30
2019-02-18T08:41:34.427Z,3.30
2019-02-18T08:44:04.204Z,3.30
2019-02-18T08:46:33.927Z,3.30
2019-02-18T08:49:03.974Z,3.30
2019-02-18T08:51:33.569Z,3.40
2019-02-18T08:54:03.320Z,3.50
2019-02-18T08:56:32.975Z,3.60
2019-02-18T08:59:02.649Z,3.60
2019-02-18T09:01:32.239Z,3.60
2019-02-18T09:04:01.930Z,3.60
2019-02-18T09:06:31.650Z,3.60
2019-02-18T09:09:01.490Z,3.70
2019-02-18T09:11:31.086Z,3.70
2019-02-18T09:14:01.932Z,3.80
2019-02-18T09:16:31.684Z,3.80
2019-02-18T09:19:02.343Z,4.00
2019-02-18T09:21:33.795Z,4.00
2019-02-18T09:24:05.191Z,4.10
2019-02-18T09:26:35.277Z,4.20
2019-02-18T09:29:05.112Z,4.30
2019-02-18T09:31:34.926Z,4.30
2019-02-18T09:34:04.899Z,4.40
2019-02-18T09:36:34.659Z,4.50
2019-02-18T09:39:05.905Z,4.60
2019-02-18T09:41:35.513Z,4.70
2019-02-18T09:44:05.242Z,4.80
2019-02-18T09:46:34.994Z,4.90
2019-02-18T09:49:04.768Z,4.90
2019-02-18T09:51:34.434Z,5.00
2019-02-18T09:54:05.526Z,5.10
2019-02-18T09:56:36.972Z,5.10
2019-02-18T09:59:07.827Z,5.10
2019-02-18T10:01:37.580Z,5.10
2019-02-18T10:04:07.256Z,5.00
2019-02-18T10:06:37.020Z,5.10
2019-02-18T10:09:06.872Z,5.10
2019-02-18T10:11:36.531Z,5.20
2019-02-18T10:14:06.288Z,5.10
2019-02-18T10:16:36.029Z,5.30
2019-02-18T10:19:06.626Z,5.40
2019-02-18T10:21:36.375Z,5.40
2019-02-18T10:24:06.556Z,5.50
2019-02-18T10:26:36.250Z,5.50
2019-02-18T10:29:06.904Z,5.60
2019-02-18T10:31:36.547Z,5.60
2019-02-18T10:34:16.365Z,5.60
2019-02-18T10:36:46.039Z,5.60
2019-02-18T10:39:16.106Z,5.70
2019-02-18T10:41:45.789Z,5.70
2019-02-18T10:44:15.566Z,5.80
2019-02-18T10:46:45.306Z,5.90
2019-02-18T10:49:19.776Z,5.90
2019-02-18T10:51:47.596Z,6.00
2019-02-18T10:54:17.298Z,6.00
2019-02-18T10:56:46.992Z,6.20
2019-02-18T10:59:16.740Z,6.30
2019-02-18T11:01:47.451Z,6.50
2019-02-18T11:04:17.063Z,6.60
2019-02-18T11:06:47.084Z,6.70
2019-02-18T11:09:16.881Z,6.90
2019-02-18T11:11:46.467Z,7.10
2019-02-18T11:14:16.265Z,7.30
2019-02-18T11:16:46.089Z,7.50
2019-02-18T11:19:17.562Z,7.60
2019-02-18T11:21:47.134Z,7.70
2019-02-18T11:24:16.836Z,7.70
2019-02-18T11:26:46.719Z,7.90
2019-02-18T11:29:16.523Z,7.90
2019-02-18T11:31:46.171Z,7.90
2019-02-18T11:34:15.966Z,8.00
2019-02-18T11:36:46.623Z,8.10
2019-02-18T11:39:16.383Z,8.10
2019-02-18T11:41:46.519Z,8.20
2019-02-18T11:44:17.743Z,8.20
2019-02-18T11:46:47.330Z,8.30
2019-02-18T11:49:17.236Z,8.40
2019-02-18T11:51:47.372Z,8.30
2019-02-18T11:54:18.435Z,8.40
2019-02-18T11:56:48.046Z,8.40
2019-02-18T11:59:24.244Z,8.50
2019-02-18T12:01:52.044Z,8.50
2019-02-18T12:04:21.814Z,8.60
2019-02-18T12:06:51.630Z,8.60
2019-02-18T12:09:21.354Z,8.70
2019-02-18T12:11:51.037Z,8.80
2019-02-18T12:14:20.798Z,8.90
2019-02-18T12:16:50.650Z,8.90
2019-02-18T12:19:20.586Z,9.00
2019-02-18T12:21:51.189Z,9.00
2019-02-18T12:24:20.958Z,8.90
2019-02-18T12:26:51.640Z,9.00
2019-02-18T12:29:26.253Z,9.00
2019-02-18T12:31:52.624Z,8.90
2019-02-18T12:34:22.256Z,9.00
2019-02-18T12:36:52.320Z,9.00
2019-02-18T12:39:22.852Z,9.10
2019-02-18T12:41:52.664Z,9.20
2019-02-18T12:44:22.544Z,9.20
2019-02-18T12:46:52.199Z,9.30
2019-02-18T12:49:21.903Z,9.30
2019-02-18T12:51:51.619Z,9.30
2019-02-18T12:54:21.352Z,9.40
2019-02-18T12:56:51.182Z,9.40
2019-02-18T12:59:21.838Z,9.50
2019-02-18T13:01:51.874Z,9.50
2019-02-18T13:04:21.603Z,9.50
2019-02-18T13:06:51.753Z,9.50
2019-02-18T13:09:21.562Z,9.60
2019-02-18T13:11:58.797Z,9.60
2019-02-18T13:14:22.748Z,9.60
2019-02-18T13:16:52.573Z,9.60
2019-02-18T13:19:22.487Z,9.60
2019-02-18T13:21:52.493Z,9.60
2019-02-18T13:24:22.443Z,9.70
2019-02-18T13:26:52.346Z,9.80
2019-02-18T13:29:21.973Z,9.80
2019-02-18T13:31:51.732Z,9.70
2019-02-18T13:34:21.585Z,9.80
2019-02-18T13:36:52.789Z,9.70
2019-02-18T13:39:22.708Z,9.80
2019-02-18T13:41:52.328Z,9.80
2019-02-18T13:44:22.083Z,9.80
2019-02-18T13:46:51.956Z,9.90
2019-02-18T13:49:21.814Z,9.90
2019-02-18T13:51:56.635Z,10.00
2019-02-18T13:54:22.855Z,9.90
2019-02-18T13:56:52.523Z,9.90
2019-02-18T13:59:22.269Z,10.00
2019-02-18T14:01:51.946Z,10.00
2019-02-18T14:04:21.711Z,10.00
2019-02-18T14:06:51.652Z,9.90
2019-02-18T14:09:21.554Z,9.90
2019-02-18T14:11:51.390Z,9.80
2019-02-18T14:14:21.004Z,9.70
2019-02-18T14:16:50.753Z,9.60
2019-02-18T14:19:20.689Z,9.40
2019-02-18T14:21:50.811Z,9.30
2019-02-18T14:24:20.707Z,9.40
2019-02-18T14:26:50.448Z,9.30
2019-02-18T14:29:21.194Z,9.30
2019-02-18T14:31:50.942Z,9.20
2019-02-18T14:34:20.723Z,9.10
2019-02-18T14:36:50.451Z,9.00
2019-02-18T14:39:21.941Z,9.10
2019-02-18T14:41:51.806Z,9.10
2019-02-18T14:44:21.717Z,9.10
2019-02-18T14:46:51.511Z,9.10
2019-02-18T14:49:21.633Z,9.20
2019-02-18T14:51:51.512Z,9.10
2019-02-18T14:54:21.509Z,9.00
2019-02-18T14:56:51.381Z,8.90
2019-02-18T14:59:21.161Z,8.70
2019-02-18T15:01:50.913Z,8.60
2019-02-18T15:04:20.756Z,8.60
2019-02-18T15:06:50.526Z,8.60
2019-02-18T15:09:20.620Z,8.60
2019-02-18T15:11:50.238Z,8.60
2019-02-18T15:14:19.976Z,8.60
2019-02-18T15:16:49.650Z,8.60
2019-02-18T15:19:19.305Z,8.70
2019-02-18T15:21:49.091Z,8.70
2019-02-18T15:24:18.815Z,8.70
2019-02-18T15:26:48.916Z,8.80
2019-02-18T15:29:18.734Z,8.80
2019-02-18T15:31:48.898Z,8.80
2019-02-18T15:34:18.552Z,8.80
2019-02-18T15:36:48.303Z,8.80
2019-02-18T15:39:18.117Z,8.80
2019-02-18T15:41:48.073Z,8.80
2019-02-18T15:44:18.332Z,8.80
2019-02-18T15:46:49.940Z,8.80
2019-02-18T15:49:19.666Z,8.70
2019-02-18T15:51:49.442Z,8.60
2019-02-18T15:54:20.144Z,8.50
2019-02-18T15:56:50.813Z,8.40
2019-02-18T15:59:21.738Z,8.40
2019-02-18T16:01:51.707Z,8.40
2019-02-18T16:04:21.463Z,8.30
2019-02-18T16:06:51.181Z,8.30
2019-02-18T16:09:20.834Z,8.20
2019-02-18T16:11:51.429Z,8.10
2019-02-18T16:14:21.317Z,8.00
2019-02-18T16:16:51.140Z,8.00
2019-02-18T16:19:21.147Z,7.90
2019-02-18T16:21:50.869Z,7.80
2019-02-18T16:24:20.625Z,7.70
2019-02-18T16:26:50.380Z,7.60
2019-02-18T16:29:20.262Z,7.60
2019-02-18T16:31:50.165Z,7.50
2019-02-18T16:34:19.822Z,7.30
2019-02-18T16:36:49.588Z,7.20
2019-02-18T16:39:19.249Z,7.10
2019-02-18T16:41:49.013Z,7.00
2019-02-18T16:44:18.776Z,6.80
2019-02-18T16:46:48.612Z,6.70
2019-02-18T16:49:18.204Z,6.60
2019-02-18T16:51:47.996Z,6.60
2019-02-18T16:54:17.758Z,6.50
2019-02-18T16:56:48.564Z,6.40
2019-02-18T16:59:18.357Z,6.40
2019-02-18T17:01:48.125Z,6.30
2019-02-18T17:04:17.929Z,6.20
2019-02-18T17:06:47.540Z,6.10
2019-02-18T17:09:17.311Z,6.10
2019-02-18T17:11:46.896Z,6.20
2019-02-18T17:14:16.612Z,6.20
2019-02-18T17:16:46.374Z,6.20
2019-02-18T17:19:16.135Z,6.10
2019-02-18T17:21:45.824Z,6.10
2019-02-18T17:24:15.454Z,6.10
2019-02-18T17:26:45.219Z,6.10
2019-02-18T17:29:14.960Z,6.00
2019-02-18T17:31:44.648Z,5.90
2019-02-18T17:34:14.465Z,5.90
2019-02-18T17:36:44.240Z,5.90
2019-02-18T17:39:14.785Z,5.90
2019-02-18T17:41:44.473Z,5.80
2019-02-18T17:44:20.186Z,5.80
2019-02-18T17:46:46.061Z,5.70
2019-02-18T17:49:15.934Z,5.60
2019-02-18T17:51:46.889Z,5.50
2019-02-18T17:54:16.856Z,5.40
2019-02-18T17:56:46.603Z,5.50
2019-02-18T17:59:16.405Z,5.50
2019-02-18T18:01:46.241Z,5.50
2019-02-18T18:04:16.064Z,5.50
2019-02-18T18:06:45.915Z,5.40
2019-02-18T18:09:16.519Z,5.40
2019-02-18T18:11:46.438Z,5.30
2019-02-18T18:14:18.131Z,5.40
2019-02-18T18:16:47.893Z,5.60
2019-02-18T18:19:17.566Z,5.50
2019-02-18T18:21:47.711Z,5.50
2019-02-18T18:24:17.427Z,5.40
2019-02-18T18:26:48.168Z,5.40
2019-02-18T18:29:18.051Z,5.50
2019-02-18T18:31:47.820Z,5.40
2019-02-18T18:34:17.703Z,5.30
2019-02-18T18:36:47.758Z,5.30
2019-02-18T18:39:17.501Z,5.20
2019-02-18T18:41:47.281Z,5.20
2019-02-18T18:44:17.009Z,5.20
2019-02-18T18:46:47.647Z,5.10
2019-02-18T18:49:17.515Z,5.00
2019-02-18T18:51:47.271Z,4.90
2019-02-18T18:54:16.936Z,4.80
2019-02-18T18:56:46.805Z,4.70
2019-02-18T18:59:16.587Z,4.60
2019-02-18T19:01:46.367Z,4.50
2019-02-18T19:04:16.205Z,4.40
2019-02-18T19:06:47.811Z,4.40
2019-02-18T19:09:17.553Z,4.50
2019-02-18T19:11:47.384Z,4.60
2019-02-18T19:14:17.136Z,4.60
2019-02-18T19:16:48.132Z,4.70
2019-02-18T19:19:18.970Z,4.90
2019-02-18T19:21:48.687Z,5.00
2019-02-18T19:24:18.543Z,4.90
2019-02-18T19:26:48.281Z,4.80
2019-02-18T19:29:18.019Z,4.80
2019-02-18T19:31:47.829Z,4.70
2019-02-18T19:34:17.574Z,4.70
2019-02-18T19:36:47.336Z,4.80
2019-02-18T19:39:17.066Z,4.80
2019-02-18T19:41:46.823Z,4.70
2019-02-18T19:44:16.915Z,4.80
2019-02-18T19:46:46.698Z,4.90
2019-02-18T19:49:16.362Z,4.90
2019-02-18T19:51:46.131Z,4.90
2019-02-18T19:54:15.862Z,4.90
2019-02-18T19:56:45.562Z,4.90
2019-02-18T19:59:15.308Z,4.90
2019-02-18T20:01:45.942Z,4.90
2019-02-18T20:04:15.660Z,4.90
2019-02-18T20:06:45.257Z,4.80
2019-02-18T20:09:15.429Z,4.70
2019-02-18T20:11:45.581Z,4.70
2019-02-18T20:14:15.360Z,4.60
2019-02-18T20:16:45.296Z,4.50
2019-02-18T20:19:15.140Z,4.50
2019-02-18T20:21:44.890Z,4.50
2019-02-18T20:24:14.679Z,4.50
2019-02-18T20:26:44.605Z,4.50
2019-02-18T20:29:14.979Z,4.40
2019-02-18T20:31:44.929Z,4.40
2019-02-18T20:34:15.084Z,4.50
2019-02-18T20:36:44.766Z,4.70
2019-02-18T20:39:14.845Z,4.70
2019-02-18T20:41:44.809Z,4.80
2019-02-18T20:44:14.600Z,4.70
2019-02-18T20:46:44.483Z,4.70
2019-02-18T20:49:14.261Z,4.60
2019-02-18T20:51:44.075Z,4.50
2019-02-18T20:54:14.104Z,4.40
2019-02-18T20:56:43.908Z,4.40
2019-02-18T20:59:13.590Z,4.30
2019-02-18T21:01:43.262Z,4.20
2019-02-18T21:04:13.636Z,4.20
2019-02-18T21:06:43.615Z,4.20
2019-02-18T21:09:13.473Z,4.10
2019-02-18T21:11:43.214Z,4.20
2019-02-18T21:14:16.199Z,4.20
2019-02-18T21:16:44.461Z,4.30
2019-02-18T21:19:14.155Z,4.30
2019-02-18T21:21:44.078Z,4.40
2019-02-18T21:24:15.746Z,4.50
2019-02-18T21:26:45.426Z,4.60
2019-02-18T21:29:15.094Z,4.60
2019-02-18T21:31:44.764Z,4.60
2019-02-18T21:34:14.722Z,4.50
2019-02-18T21:36:45.232Z,4.50
2019-02-18T21:39:15.812Z,4.40
2019-02-18T21:41:45.548Z,4.30
2019-02-18T21:44:15.255Z,4.30
2019-02-18T21:46:44.924Z,4.20
2019-02-18T21:49:14.902Z,4.20
2019-02-18T21:51:44.720Z,4.10
2019-02-18T21:54:14.628Z,4.00
2019-02-18T21:56:44.232Z,3.90
2019-02-18T21:59:13.929Z,3.80
2019-02-18T22:01:43.699Z,3.80
2019-02-18T22:04:13.403Z,3.70
2019-02-18T22:06:43.159Z,3.70
2019-02-18T22:09:12.882Z,3.70
2019-02-18T22:11:42.555Z,3.70
2019-02-18T22:14:12.313Z,3.70
2019-02-18T22:16:41.982Z,3.70
2019-02-18T22:19:11.679Z,3.70
2019-02-18T22:21:41.437Z,3.70
2019-02-18T22:24:11.165Z,3.70
2019-02-18T22:26:40.890Z,3.80
2019-02-18T22:29:10.631Z,4.00
2019-02-18T22:31:40.313Z,4.10
2019-02-18T22:34:10.323Z,4.50
2019-02-18T22:36:40.114Z,4.50
2019-02-18T22:39:09.851Z,4.50
2019-02-18T22:41:39.881Z,4.30
2019-02-18T22:44:09.672Z,4.10
2019-02-18T22:46:39.455Z,4.00
2019-02-18T22:49:09.549Z,3.80
2019-02-18T22:51:40.405Z,3.70
2019-02-18T22:54:10.114Z,3.60
2019-02-18T22:56:40.758Z,3.60
2019-02-18T22:59:10.392Z,3.60
2019-02-18T23:01:40.361Z,3.60
2019-02-18T23:04:11.384Z,3.60
2019-02-18T23:06:41.060Z,3.80
2019-02-18T23:09:12.462Z,3.80
2019-02-18T23:11:42.186Z,3.90
2019-02-18T23:14:12.248Z,3.90
2019-02-18T23:16:41.925Z,3.90
2019-02-18T23:19:13.528Z,3.90
2019-02-18T23:21:43.283Z,4.00
2019-02-18T23:24:13.031Z,4.10
2019-02-18T23:26:42.693Z,4.20
2019-02-18T23:29:12.373Z,4.10
2019-02-18T23:31:43.045Z,4.00
2019-02-18T23:34:13.708Z,3.90
2019-02-18T23:36:43.376Z,3.80
2019-02-18T23:39:13.195Z,3.70
2019-02-18T23:41:42.914Z,3.70
2019-02-18T23:44:12.590Z,3.60
2019-02-18T23:46:42.276Z,3.50
2019-02-18T23:49:11.977Z,3.60
2019-02-18T23:51:41.595Z,3.70
2019-02-18T23:54:11.450Z,3.70
2019-02-18T23:56:41.062Z,3.60
2019-02-18T23:59:11.561Z,3.60
